createdAt,value
2022-07-29T00:01:57.598Z,5.38
2022-07-29T00:06:59.465Z,5.95
2022-07-29T00:12:02.320Z,7.72
2022-07-29T00:17:04.247Z,5.30
2022-07-29T00:22:06.070Z,6.68
2022-07-29T00:27:07.951Z,4.57
2022-07-29T00:32:09.800Z,5.32
2022-07-29T00:37:11.634Z,6.00
2022-07-29T00:42:13.499Z,7.07
2022-07-29T00:47:15.454Z,6.10
2022-07-29T00:52:17.391Z,6.20
2022-07-29T00:57:19.296Z,6.00
2022-07-29T01:02:21.157Z,5.47
2022-07-29T01:07:23.007Z,6.00
2022-07-29T01:12:27.626Z,5.72
2022-07-29T01:17:53.166Z,6.07
2022-07-29T01:22:58.045Z,5.50
2022-07-29T01:28:18.870Z,5.35
2022-07-29T01:33:41.905Z,5.93
2022-07-29T01:38:49.619Z,6.40
2022-07-29T01:43:59.291Z,5.85
2022-07-29T01:49:12.159Z,6.18
2022-07-29T01:54:29.854Z,6.50
2022-07-29T01:59:34.185Z,6.13
2022-07-29T02:04:38.011Z,6.38
2022-07-29T02:09:41.751Z,6.43
2022-07-29T02:14:48.539Z,6.40
2022-07-29T02:19:51.737Z,6.57
2022-07-29T02:24:56.431Z,6.32
2022-07-29T02:29:59.617Z,6.25
2022-07-29T02:35:02.809Z,6.03
2022-07-29T02:40:07.107Z,6.15
2022-07-29T02:45:09.756Z,7.60
2022-07-29T02:50:24.127Z,6.65
2022-07-29T02:55:36.978Z,7.25
2022-07-29T03:00:41.501Z,8.07
2022-07-29T03:05:43.595Z,8.35
2022-07-29T03:10:48.057Z,8.07
2022-07-29T03:15:50.364Z,8.10
2022-07-29T03:20:52.266Z,8.98
2022-07-29T03:25:54.732Z,8.35
2022-07-29T03:30:56.690Z,7.88
2022-07-29T03:35:59.347Z,8.23
2022-07-29T03:41:08.343Z,7.68
2022-07-29T03:46:12.318Z,8.65
2022-07-29T03:51:14.622Z,9.77
2022-07-29T03:56:21.796Z,7.97
2022-07-29T04:01:24.999Z,11.27
2022-07-29T04:06:26.844Z,9.00
2022-07-29T04:11:28.779Z,7.82
2022-07-29T04:16:30.616Z,9.00
2022-07-29T04:21:37.362Z,7.85
2022-07-29T04:26:39.118Z,7.88
2022-07-29T04:31:41.579Z,7.45
2022-07-29T04:36:43.348Z,7.90
2022-07-29T04:41:45.213Z,7.20
2022-07-29T04:46:48.348Z,8.23
2022-07-29T04:51:50.387Z,8.52
2022-07-29T04:56:52.286Z,7.65
2022-07-29T05:01:54.243Z,7.30
2022-07-29T05:06:56.066Z,7.65
2022-07-29T05:11:57.839Z,7.78
2022-07-29T05:17:00.020Z,8.73
2022-07-29T05:22:01.864Z,8.50
2022-07-29T05:27:03.727Z,8.10
2022-07-29T05:32:06.788Z,7.80
2022-07-29T05:37:08.596Z,7.35
2022-07-29T05:42:11.396Z,7.85
2022-07-29T05:47:13.199Z,7.30
2022-07-29T05:52:15.142Z,7.18
2022-07-29T05:57:18.456Z,6.90
2022-07-29T06:02:20.621Z,6.97
2022-07-29T06:07:22.493Z,6.75
2022-07-29T06:12:24.418Z,7.70
2022-07-29T06:17:26.581Z,6.28
2022-07-29T06:22:28.518Z,6.68
2022-07-29T06:27:31.069Z,7.00
2022-07-29T06:32:33.098Z,10.13
2022-07-29T06:37:35.962Z,6.55
2022-07-29T06:42:43.525Z,6.10
2022-07-29T06:47:45.466Z,6.50
2022-07-29T06:52:49.024Z,7.05
2022-07-29T06:57:50.857Z,7.40
2022-07-29T07:02:53.328Z,6.32
2022-07-29T07:07:55.202Z,5.97
2022-07-29T07:12:56.999Z,7.43
2022-07-29T07:17:59.089Z,6.18
2022-07-29T07:23:01.133Z,8.95
2022-07-29T07:28:03.629Z,9.43
2022-07-29T07:33:05.640Z,6.93
2022-07-29T07:38:07.584Z,6.65
2022-07-29T07:43:09.394Z,6.90
2022-07-29T07:48:11.285Z,6.55
2022-07-29T07:53:13.099Z,6.63
2022-07-29T07:58:15.047Z,7.45
2022-07-29T08:03:17.480Z,8.55
2022-07-29T08:08:19.736Z,7.30
2022-07-29T08:13:23.012Z,6.85
2022-07-29T08:18:26.018Z,7.03
2022-07-29T08:23:47.101Z,6.72
2022-07-29T08:28:51.794Z,6.43
2022-07-29T08:33:53.627Z,9.40
2022-07-29T08:38:55.587Z,6.82
2022-07-29T08:43:57.450Z,5.90
2022-07-29T08:48:59.387Z,9.13
2022-07-29T08:54:02.469Z,8.80
2022-07-29T08:59:06.282Z,7.40
2022-07-29T09:04:12.767Z,5.57
2022-07-29T09:09:15.574Z,6.43
2022-07-29T09:14:17.562Z,8.32
2022-07-29T09:19:26.104Z,7.13
2022-07-29T09:24:39.610Z,7.05
2022-07-29T09:29:41.411Z,8.13
2022-07-29T09:34:43.301Z,7.78
2022-07-29T09:39:46.797Z,6.00
2022-07-29T09:44:51.020Z,5.82
2022-07-29T09:50:01.567Z,7.65
2022-07-29T09:55:08.422Z,6.03
2022-07-29T10:00:12.990Z,6.00
2022-07-29T10:05:21.042Z,5.63
2022-07-29T10:10:37.920Z,6.80
2022-07-29T10:15:41.919Z,5.70
2022-07-29T10:20:43.882Z,5.85
2022-07-29T10:25:46.968Z,6.28
2022-07-29T10:30:52.487Z,7.13
2022-07-29T10:36:26.693Z,5.45
2022-07-29T10:41:48.467Z,5.32
2022-07-29T10:46:51.692Z,5.85
2022-07-29T10:52:00.283Z,5.45
2022-07-29T10:57:53.803Z,6.30
2022-07-29T11:02:55.996Z,5.63
2022-07-29T11:08:21.089Z,5.32
2022-07-29T11:13:51.229Z,5.13
2022-07-29T11:19:13.852Z,7.35
2022-07-29T11:24:28.689Z,7.05
2022-07-29T11:29:32.915Z,7.05
2022-07-29T11:34:42.430Z,5.30
2022-07-29T11:40:02.283Z,4.85
2022-07-29T11:45:42.876Z,5.68
2022-07-29T11:50:48.221Z,6.05
2022-07-29T11:55:56.258Z,4.95
2022-07-29T12:01:04.691Z,4.93
2022-07-29T12:06:15.045Z,6.20
2022-07-29T12:11:22.883Z,3.47
2022-07-29T12:16:50.604Z,2.90
2022-07-29T12:21:56.556Z,3.30
2022-07-29T12:27:00.338Z,4.07
2022-07-29T12:32:03.854Z,3.92
2022-07-29T12:37:06.400Z,4.63
2022-07-29T12:42:14.841Z,4.10
2022-07-29T12:47:19.057Z,3.28
2022-07-29T12:52:31.660Z,3.47
2022-07-29T12:57:46.052Z,3.60
2022-07-29T13:02:56.708Z,3.10
2022-07-29T13:08:20.413Z,4.45
2022-07-29T13:13:24.289Z,3.42
2022-07-29T13:18:37.215Z,3.72
2022-07-29T13:23:39.314Z,4.35
2022-07-29T13:28:44.098Z,3.22
2022-07-29T13:33:46.243Z,2.50
2022-07-29T13:38:48.051Z,2.97
2022-07-29T13:43:50.187Z,3.35
2022-07-29T13:48:52.363Z,3.00
2022-07-29T13:53:54.224Z,7.97
2022-07-29T13:58:56.181Z,3.50
2022-07-29T14:03:57.977Z,3.03
2022-07-29T14:09:00.209Z,3.53
2022-07-29T14:14:02.351Z,3.30
2022-07-29T14:19:04.143Z,4.22
2022-07-29T14:24:17.050Z,2.42
2022-07-29T14:29:23.640Z,2.63
2022-07-29T14:34:39.363Z,2.60
2022-07-29T14:39:43.213Z,2.90
2022-07-29T14:44:45.258Z,3.53
2022-07-29T14:49:48.779Z,4.35
2022-07-29T14:54:50.814Z,3.45
2022-07-29T14:59:52.867Z,4.90
2022-07-29T15:04:54.667Z,3.03
2022-07-29T15:09:59.627Z,2.75
2022-07-29T15:15:01.612Z,3.33
2022-07-29T15:20:06.026Z,2.80
2022-07-29T15:25:08.232Z,2.78
2022-07-29T15:30:10.842Z,2.80
2022-07-29T15:35:31.276Z,3.20
2022-07-29T15:40:33.291Z,2.88
2022-07-29T15:45:42.062Z,3.78
2022-07-29T15:50:47.176Z,3.17
2022-07-29T15:55:49.085Z,3.10
2022-07-29T16:00:51.015Z,2.72
2022-07-29T16:05:57.984Z,2.80
2022-07-29T16:10:59.748Z,2.20
2022-07-29T16:16:02.580Z,2.55
2022-07-29T16:21:04.845Z,2.50
2022-07-29T16:26:06.822Z,2.92
2022-07-29T16:31:09.222Z,2.83
2022-07-29T16:36:11.459Z,2.65
2022-07-29T16:41:15.399Z,2.67
2022-07-29T16:46:19.032Z,4.05
2022-07-29T16:51:21.424Z,2.80
2022-07-29T16:56:23.572Z,5.75
2022-07-29T17:01:25.465Z,3.05
2022-07-29T17:06:28.638Z,4.07
2022-07-29T17:11:52.856Z,2.58
2022-07-29T17:17:01.099Z,3.45
2022-07-29T17:22:18.792Z,3.17
2022-07-29T17:27:21.079Z,4.43
2022-07-29T17:32:23.206Z,6.25
2022-07-29T17:37:24.963Z,3.15
2022-07-29T17:42:26.786Z,5.20
2022-07-29T17:47:28.725Z,2.67
2022-07-29T17:52:30.487Z,2.40
2022-07-29T17:57:32.335Z,2.85
2022-07-29T18:02:34.245Z,2.58
2022-07-29T18:07:36.256Z,8.02
2022-07-29T18:12:38.042Z,5.88
2022-07-29T18:17:56.487Z,6.45
2022-07-29T18:23:00.907Z,6.65
2022-07-29T18:28:03.709Z,6.35
2022-07-29T18:33:23.949Z,4.00
2022-07-29T18:38:25.732Z,3.25
2022-07-29T18:43:27.531Z,3.35
2022-07-29T18:48:29.348Z,3.50
2022-07-29T18:53:31.119Z,4.28
2022-07-29T18:58:39.287Z,4.93
2022-07-29T19:03:41.087Z,5.20
2022-07-29T19:08:43.217Z,5.00
2022-07-29T19:13:45.027Z,4.95
2022-07-29T19:18:47.426Z,5.10
2022-07-29T19:24:01.713Z,5.60
2022-07-29T19:29:09.658Z,5.05
2022-07-29T19:34:11.616Z,3.90
2022-07-29T19:39:13.442Z,8.65
2022-07-29T19:44:16.587Z,7.60
2022-07-29T19:49:18.484Z,5.20
2022-07-29T19:54:20.341Z,4.60
2022-07-29T19:59:23.864Z,4.88
2022-07-29T20:04:26.470Z,5.05
2022-07-29T20:09:28.618Z,7.30
2022-07-29T20:14:30.599Z,5.75
2022-07-29T20:19:33.235Z,5.32
2022-07-29T20:24:35.238Z,5.95
2022-07-29T20:29:37.266Z,6.10
2022-07-29T20:34:41.261Z,5.68
2022-07-29T20:39:43.111Z,9.45
2022-07-29T20:44:44.943Z,6.07
2022-07-29T20:49:46.983Z,9.05
2022-07-29T20:54:48.955Z,6.28
2022-07-29T20:59:50.765Z,7.82
2022-07-29T21:04:53.466Z,8.07
2022-07-29T21:09:55.304Z,5.97
2022-07-29T21:14:57.972Z,8.00
2022-07-29T21:20:08.600Z,6.10
2022-07-29T21:25:11.137Z,5.40
2022-07-29T21:30:13.105Z,5.80
2022-07-29T21:35:35.981Z,6.18
2022-07-29T21:40:37.995Z,4.18
2022-07-29T21:45:40.147Z,4.15
2022-07-29T21:50:41.949Z,5.22
2022-07-29T21:55:43.845Z,5.00
2022-07-29T22:00:45.866Z,7.25
2022-07-29T22:05:47.700Z,6.32
2022-07-29T22:10:49.531Z,6.75
2022-07-29T22:15:51.354Z,7.10
2022-07-29T22:20:53.159Z,6.40
2022-07-29T22:25:54.902Z,6.40
2022-07-29T22:30:56.720Z,5.55
2022-07-29T22:35:58.527Z,6.30
2022-07-29T22:41:00.659Z,7.15
2022-07-29T22:46:03.406Z,6.28
2022-07-29T22:51:05.252Z,7.50
2022-07-29T22:56:07.377Z,5.75
2022-07-29T23:01:09.242Z,5.93
2022-07-29T23:06:11.071Z,5.68
2022-07-29T23:11:12.853Z,5.72
2022-07-29T23:16:14.709Z,6.57
2022-07-29T23:21:28.671Z,6.55
2022-07-29T23:26:31.875Z,7.22
2022-07-29T23:31:34.877Z,7.43
2022-07-29T23:36:43.841Z,10.50
2022-07-29T23:41:45.642Z,8.07
2022-07-29T23:46:47.460Z,7.45
2022-07-29T23:51:49.275Z,6.18
2022-07-29T23:56:51.036Z,6.90
